createdAt,value
2019-05-21T00:00:26.417Z,15.10
2019-05-21T00:02:52.586Z,15.10
2019-05-21T00:05:18.831Z,15.10
2019-05-21T00:07:45.044Z,15.00
2019-05-21T00:10:11.483Z,15.00
2019-05-21T00:12:37.764Z,15.00
2019-05-21T00:15:05.036Z,15.00
2019-05-21T00:17:31.327Z,15.00
2019-05-21T00:19:57.576Z,15.00
2019-05-21T00:22:23.751Z,15.00
2019-05-21T00:24:49.982Z,15.00
2019-05-21T00:27:16.406Z,15.00
2019-05-21T00:30:19.922Z,15.00
2019-05-21T00:33:23.243Z,14.90
2019-05-21T00:36:26.755Z,14.90
2019-05-21T00:39:30.241Z,14.90
2019-05-21T00:42:02.852Z,14.90
2019-05-21T00:44:41.148Z,14.90
2019-05-21T00:47:09.033Z,14.80
2019-05-21T00:49:35.211Z,14.80
2019-05-21T00:52:08.212Z,14.90
2019-05-21T00:54:29.555Z,14.80
2019-05-21T00:56:55.725Z,14.80
2019-05-21T00:59:21.941Z,14.80
2019-05-21T01:01:48.110Z,14.80
2019-05-21T01:04:14.290Z,14.80
2019-05-21T01:06:40.942Z,14.80
2019-05-21T01:09:07.674Z,14.90
2019-05-21T01:11:33.861Z,14.80
2019-05-21T01:14:00.046Z,14.70
2019-05-21T01:16:26.522Z,14.70
2019-05-21T01:18:52.818Z,14.80
2019-05-21T01:21:18.989Z,14.80
2019-05-21T01:23:45.155Z,14.80
2019-05-21T01:26:11.401Z,14.80
2019-05-21T01:28:37.610Z,14.80
2019-05-21T01:31:03.823Z,14.80
2019-05-21T01:33:30.022Z,14.70
2019-05-21T01:35:56.193Z,14.80
2019-05-21T01:38:22.401Z,14.70
2019-05-21T01:40:48.576Z,14.70
2019-05-21T01:43:14.839Z,14.80
2019-05-21T01:45:41.001Z,14.70
2019-05-21T01:48:07.367Z,14.70
2019-05-21T01:50:33.666Z,14.70
2019-05-21T01:53:00.091Z,14.70
2019-05-21T01:55:26.237Z,14.70
2019-05-21T01:57:52.489Z,14.70
2019-05-21T02:00:18.775Z,14.70
2019-05-21T02:02:44.959Z,14.70
2019-05-21T02:05:11.451Z,14.70
2019-05-21T02:07:37.856Z,14.70
2019-05-21T02:10:05.963Z,14.80
2019-05-21T02:12:32.264Z,14.70
2019-05-21T02:14:58.536Z,14.70
2019-05-21T02:17:24.826Z,14.70
2019-05-21T02:19:50.995Z,14.70
2019-05-21T02:22:17.393Z,14.70
2019-05-21T02:24:43.586Z,14.70
2019-05-21T02:27:09.755Z,14.80
2019-05-21T02:29:35.932Z,14.80
2019-05-21T02:32:02.236Z,14.80
2019-05-21T02:34:28.498Z,14.80
2019-05-21T02:36:54.922Z,14.70
2019-05-21T02:39:21.114Z,14.70
2019-05-21T02:41:47.359Z,14.70
2019-05-21T02:44:13.623Z,14.70
2019-05-21T02:46:39.776Z,14.70
2019-05-21T02:49:05.970Z,14.80
2019-05-21T02:51:32.368Z,14.70
2019-05-21T02:53:58.585Z,14.80
2019-05-21T02:56:24.879Z,14.70
2019-05-21T02:58:51.063Z,14.70
2019-05-21T03:01:32.040Z,14.70
2019-05-21T03:03:58.286Z,14.80
2019-05-21T03:06:24.501Z,14.80
2019-05-21T03:08:50.746Z,14.80
2019-05-21T03:11:17.113Z,14.80
2019-05-21T03:13:43.319Z,14.80
2019-05-21T03:16:09.473Z,14.80
2019-05-21T03:18:35.676Z,14.70
2019-05-21T03:21:01.854Z,14.70
2019-05-21T03:23:28.069Z,14.80
2019-05-21T03:25:54.398Z,14.80
2019-05-21T03:28:20.799Z,14.70
2019-05-21T03:30:47.095Z,14.70
2019-05-21T03:33:13.441Z,14.70
2019-05-21T03:35:39.745Z,14.70
2019-05-21T03:38:06.040Z,14.80
2019-05-21T03:40:32.362Z,14.80
2019-05-21T03:42:58.706Z,14.80
2019-05-21T03:45:24.925Z,14.80
2019-05-21T03:47:51.464Z,14.80
2019-05-21T03:50:17.733Z,14.80
2019-05-21T03:52:43.907Z,14.80
2019-05-21T03:55:10.826Z,14.80
2019-05-21T03:57:37.072Z,14.80
2019-05-21T04:00:09.647Z,14.80
2019-05-21T04:02:36.157Z,14.80
2019-05-21T04:05:04.608Z,14.90
2019-05-21T04:07:30.864Z,14.90
2019-05-21T04:09:57.206Z,14.80
2019-05-21T04:12:23.390Z,14.80
2019-05-21T04:14:54.432Z,14.70
2019-05-21T04:17:35.039Z,14.60
2019-05-21T04:20:02.429Z,14.60
2019-05-21T04:22:28.736Z,14.60
2019-05-21T04:24:54.998Z,14.50
2019-05-21T04:27:21.301Z,14.50
2019-05-21T04:29:47.488Z,14.50
2019-05-21T04:32:13.697Z,14.60
2019-05-21T04:34:39.967Z,14.50
2019-05-21T04:37:10.763Z,14.50
2019-05-21T04:39:34.657Z,14.50
2019-05-21T04:42:00.925Z,14.50
2019-05-21T04:44:27.157Z,14.60
2019-05-21T04:46:53.547Z,14.60
2019-05-21T04:49:19.949Z,14.50
2019-05-21T04:51:46.729Z,14.40
2019-05-21T04:54:14.168Z,14.40
2019-05-21T04:56:41.000Z,14.40
2019-05-21T04:59:07.788Z,14.40
2019-05-21T05:01:34.293Z,14.40
2019-05-21T05:04:01.028Z,14.40
2019-05-21T05:06:27.554Z,14.50
2019-05-21T05:08:53.891Z,14.40
2019-05-21T05:11:20.420Z,14.40
2019-05-21T05:13:46.852Z,14.40
2019-05-21T05:16:13.214Z,14.50
2019-05-21T05:18:39.688Z,14.40
2019-05-21T05:21:06.049Z,14.40
2019-05-21T05:23:32.448Z,14.40
2019-05-21T05:25:58.852Z,14.40
2019-05-21T05:28:25.291Z,14.30
2019-05-21T05:30:51.772Z,14.30
2019-05-21T05:33:18.160Z,14.30
2019-05-21T05:35:44.842Z,14.20
2019-05-21T05:38:11.422Z,14.30
2019-05-21T05:40:37.736Z,14.30
2019-05-21T05:43:04.159Z,14.40
2019-05-21T05:45:30.816Z,14.40
2019-05-21T05:47:57.088Z,14.40
2019-05-21T05:50:25.425Z,14.40
2019-05-21T05:52:51.937Z,14.40
2019-05-21T05:55:18.633Z,14.40
2019-05-21T05:57:44.973Z,14.40
2019-05-21T06:00:12.608Z,14.30
2019-05-21T06:02:39.081Z,14.30
2019-05-21T06:05:06.451Z,14.40
2019-05-21T06:07:33.201Z,14.40
2019-05-21T06:09:59.808Z,14.50
2019-05-21T06:12:26.180Z,14.50
2019-05-21T06:14:53.100Z,14.50
2019-05-21T06:17:19.694Z,14.50
2019-05-21T06:19:46.176Z,14.40
2019-05-21T06:22:12.962Z,14.40
2019-05-21T06:24:39.715Z,14.40
2019-05-21T06:27:06.166Z,14.40
2019-05-21T06:29:32.963Z,14.40
2019-05-21T06:31:59.230Z,14.40
2019-05-21T06:34:25.710Z,14.40
2019-05-21T06:36:52.108Z,14.30
2019-05-21T06:39:18.607Z,14.30
2019-05-21T06:41:45.112Z,14.30
2019-05-21T06:44:11.591Z,14.40
2019-05-21T06:46:38.171Z,14.40
2019-05-21T06:49:04.875Z,14.40
2019-05-21T06:51:31.273Z,14.40
2019-05-21T06:53:57.724Z,14.40
2019-05-21T06:56:24.317Z,14.40
2019-05-21T06:58:50.991Z,14.50
2019-05-21T07:01:17.507Z,14.50
2019-05-21T07:03:44.228Z,14.50
2019-05-21T07:06:10.922Z,14.50
2019-05-21T07:08:37.394Z,14.50
2019-05-21T07:11:03.975Z,14.50
2019-05-21T07:13:31.126Z,14.50
2019-05-21T07:15:58.033Z,14.50
2019-05-21T07:18:24.649Z,14.50
2019-05-21T07:20:51.112Z,14.50
2019-05-21T07:23:17.577Z,14.60
2019-05-21T07:25:44.091Z,14.70
2019-05-21T07:28:10.742Z,14.70
2019-05-21T07:30:37.260Z,14.80
2019-05-21T07:33:03.981Z,14.80
2019-05-21T07:35:30.606Z,14.80
2019-05-21T07:37:57.178Z,14.80
2019-05-21T07:40:23.643Z,14.80
2019-05-21T07:42:50.528Z,14.80
2019-05-21T07:45:17.327Z,14.70
2019-05-21T07:47:43.784Z,14.70
2019-05-21T07:50:11.094Z,14.70
2019-05-21T07:52:37.654Z,14.70
2019-05-21T07:55:04.702Z,14.70
2019-05-21T07:57:31.321Z,14.70
2019-05-21T07:59:57.597Z,14.70
2019-05-21T08:02:24.247Z,14.60
2019-05-21T08:04:50.854Z,14.60
2019-05-21T08:07:17.222Z,14.60
2019-05-21T08:09:43.611Z,14.70
2019-05-21T08:12:27.893Z,14.60
2019-05-21T08:14:38.419Z,14.60
2019-05-21T08:17:05.293Z,14.60
2019-05-21T08:19:32.358Z,14.60
2019-05-21T08:21:59.041Z,14.60
2019-05-21T08:24:25.417Z,14.60
2019-05-21T08:26:52.271Z,14.60
2019-05-21T08:29:18.872Z,14.60
2019-05-21T08:31:45.235Z,14.60
2019-05-21T08:34:12.091Z,14.60
2019-05-21T08:36:38.804Z,14.50
2019-05-21T08:39:06.488Z,14.50
2019-05-21T08:41:33.114Z,14.50
2019-05-21T08:43:59.311Z,14.50
2019-05-21T08:46:25.640Z,14.50
2019-05-21T08:48:52.407Z,14.50
2019-05-21T08:51:18.961Z,14.50
2019-05-21T08:53:45.525Z,14.60
2019-05-21T08:56:12.149Z,14.70
2019-05-21T08:58:38.824Z,14.70
2019-05-21T09:01:05.285Z,14.70
2019-05-21T09:03:31.807Z,14.70
2019-05-21T09:05:58.755Z,14.70
2019-05-21T09:08:26.441Z,14.70
2019-05-21T09:10:53.963Z,14.70
2019-05-21T09:13:20.697Z,14.60
2019-05-21T09:15:47.152Z,14.70
2019-05-21T09:18:13.626Z,14.70
2019-05-21T09:20:40.449Z,14.70
2019-05-21T09:23:06.990Z,14.80
2019-05-21T09:25:33.481Z,14.90
2019-05-21T09:28:00.173Z,14.90
2019-05-21T09:30:26.683Z,14.90
2019-05-21T09:32:53.130Z,14.90
2019-05-21T09:35:20.467Z,14.90
2019-05-21T09:37:47.121Z,14.90
2019-05-21T09:40:15.274Z,14.90
2019-05-21T09:42:45.213Z,14.90
2019-05-21T09:45:10.864Z,15.00
2019-05-21T09:47:37.429Z,14.90
2019-05-21T09:50:05.517Z,14.90
2019-05-21T09:52:32.227Z,14.80
2019-05-21T09:54:58.618Z,14.90
2019-05-21T09:57:29.947Z,14.90
2019-05-21T10:00:02.058Z,14.90
2019-05-21T10:02:31.143Z,15.00
2019-05-21T10:04:57.592Z,15.00
2019-05-21T10:07:39.379Z,15.00
2019-05-21T10:09:52.324Z,15.10
2019-05-21T10:12:18.820Z,15.10
2019-05-21T10:14:45.053Z,15.10
2019-05-21T10:17:11.657Z,15.10
2019-05-21T10:19:38.246Z,15.20
2019-05-21T10:22:04.738Z,15.20
2019-05-21T10:24:31.098Z,15.30
2019-05-21T10:26:57.347Z,15.30
2019-05-21T10:29:23.787Z,15.30
2019-05-21T10:31:50.419Z,15.20
2019-05-21T10:34:18.060Z,15.20
2019-05-21T10:36:44.645Z,15.30
2019-05-21T10:39:11.336Z,15.30
2019-05-21T10:41:37.652Z,15.30
2019-05-21T10:44:04.718Z,15.30
2019-05-21T10:46:30.963Z,15.20
2019-05-21T10:48:57.329Z,15.20
2019-05-21T10:51:23.892Z,15.20
2019-05-21T10:53:50.604Z,15.20
2019-05-21T10:56:17.050Z,15.20
2019-05-21T10:58:43.373Z,15.20
2019-05-21T11:01:11.944Z,15.20
2019-05-21T11:03:52.599Z,15.30
2019-05-21T11:06:19.138Z,15.30
2019-05-21T11:08:45.497Z,15.30
2019-05-21T11:11:11.920Z,15.30
2019-05-21T11:13:39.663Z,15.20
2019-05-21T11:16:06.436Z,15.30
2019-05-21T11:18:33.017Z,15.30
2019-05-21T11:20:59.431Z,15.30
2019-05-21T11:23:25.838Z,15.40
2019-05-21T11:25:52.502Z,15.50
2019-05-21T11:28:18.768Z,15.60
2019-05-21T11:30:45.351Z,15.70
2019-05-21T11:33:11.743Z,15.70
2019-05-21T11:35:38.503Z,15.70
2019-05-21T11:38:04.992Z,15.80
2019-05-21T11:40:31.673Z,15.80
2019-05-21T11:42:58.665Z,15.80
2019-05-21T11:45:32.114Z,15.80
2019-05-21T11:47:54.697Z,15.80
2019-05-21T11:50:21.385Z,15.90
2019-05-21T11:52:47.846Z,15.90
2019-05-21T11:55:15.268Z,15.90
2019-05-21T11:57:41.881Z,16.00
2019-05-21T12:00:09.419Z,16.00
2019-05-21T12:02:37.048Z,16.00
2019-05-21T12:05:05.077Z,16.00
2019-05-21T12:07:31.346Z,16.00
2019-05-21T12:09:57.678Z,16.00
2019-05-21T12:12:24.517Z,16.00
2019-05-21T12:14:51.062Z,16.10
2019-05-21T12:17:17.476Z,16.20
2019-05-21T12:19:43.771Z,16.20
2019-05-21T12:22:10.364Z,16.30
2019-05-21T12:24:37.137Z,16.30
2019-05-21T12:27:03.684Z,16.40
2019-05-21T12:29:33.503Z,16.50
2019-05-21T12:31:58.620Z,16.60
2019-05-21T12:34:24.947Z,16.60
2019-05-21T12:36:51.760Z,16.70
2019-05-21T12:39:18.562Z,16.70
2019-05-21T12:41:45.023Z,16.80
2019-05-21T12:44:11.522Z,16.90
2019-05-21T12:46:38.298Z,16.90
2019-05-21T12:49:05.039Z,17.00
2019-05-21T12:51:31.208Z,17.00
2019-05-21T12:53:57.543Z,17.00
2019-05-21T12:56:23.886Z,17.10
2019-05-21T12:58:50.547Z,17.20
2019-05-21T13:01:16.909Z,17.20
2019-05-21T13:03:43.119Z,17.20
2019-05-21T13:06:09.314Z,17.20
2019-05-21T13:08:36.089Z,17.30
2019-05-21T13:11:02.344Z,17.40
2019-05-21T13:13:28.694Z,17.50
2019-05-21T13:15:54.986Z,17.60
2019-05-21T13:18:21.745Z,17.60
2019-05-21T13:20:48.053Z,17.70
2019-05-21T13:23:14.713Z,17.60
2019-05-21T13:25:42.771Z,17.60
2019-05-21T13:28:09.017Z,17.60
2019-05-21T13:30:35.672Z,17.60
2019-05-21T13:33:02.642Z,17.50
2019-05-21T13:35:29.242Z,17.50
2019-05-21T13:37:55.751Z,17.50
2019-05-21T13:40:22.725Z,17.50
2019-05-21T13:42:49.333Z,17.50
2019-05-21T13:45:15.985Z,17.50
2019-05-21T13:47:42.752Z,17.60
2019-05-21T13:50:09.710Z,17.60
2019-05-21T13:52:36.258Z,17.70
2019-05-21T13:55:06.264Z,17.70
2019-05-21T13:57:33.142Z,17.70
2019-05-21T13:59:59.596Z,17.80
2019-05-21T14:02:26.371Z,17.80
2019-05-21T14:04:53.009Z,17.90
2019-05-21T14:07:19.662Z,17.90
2019-05-21T14:09:46.345Z,17.90
2019-05-21T14:12:13.882Z,17.90
2019-05-21T14:14:40.483Z,17.90
2019-05-21T14:17:08.672Z,17.90
2019-05-21T14:19:35.718Z,18.00
2019-05-21T14:22:02.445Z,18.00
2019-05-21T14:24:29.319Z,18.00
2019-05-21T14:26:55.862Z,18.00
2019-05-21T14:29:22.327Z,17.90
2019-05-21T14:31:48.982Z,17.90
2019-05-21T14:34:15.633Z,17.90
2019-05-21T14:36:42.206Z,17.90
2019-05-21T14:39:13.232Z,17.80
2019-05-21T14:41:39.566Z,17.80
2019-05-21T14:44:05.856Z,17.80
2019-05-21T14:46:32.580Z,17.80
2019-05-21T14:48:58.977Z,17.80
2019-05-21T14:51:25.201Z,17.80
2019-05-21T14:53:53.328Z,17.80
2019-05-21T14:56:19.576Z,17.80
2019-05-21T14:58:46.021Z,17.80
2019-05-21T15:01:12.533Z,17.80
2019-05-21T15:03:39.045Z,17.80
2019-05-21T15:06:05.278Z,17.80
2019-05-21T15:08:32.053Z,17.80
2019-05-21T15:10:58.702Z,17.70
2019-05-21T15:13:25.023Z,17.80
2019-05-21T15:15:51.280Z,17.70
2019-05-21T15:18:22.130Z,17.70
2019-05-21T15:20:47.735Z,17.70
2019-05-21T15:23:14.563Z,17.70
2019-05-21T15:25:41.026Z,17.80
2019-05-21T15:28:07.310Z,17.80
2019-05-21T15:30:33.837Z,17.80
2019-05-21T15:33:00.358Z,17.70
2019-05-21T15:35:26.929Z,17.70
2019-05-21T15:37:53.226Z,17.60
2019-05-21T15:40:20.438Z,17.60
2019-05-21T15:42:51.938Z,17.60
2019-05-21T15:45:15.294Z,17.50
2019-05-21T15:47:42.243Z,17.50
2019-05-21T15:50:09.189Z,17.50
2019-05-21T15:52:35.440Z,17.50
2019-05-21T15:55:06.767Z,17.50
2019-05-21T15:57:31.164Z,17.50
2019-05-21T15:59:57.402Z,17.50
2019-05-21T16:02:23.712Z,17.50
2019-05-21T16:04:50.207Z,17.50
2019-05-21T16:07:16.825Z,17.50
2019-05-21T16:09:43.471Z,17.50
2019-05-21T16:12:09.790Z,17.50
2019-05-21T16:14:36.106Z,17.50
2019-05-21T16:17:02.413Z,17.50
2019-05-21T16:19:28.790Z,17.40
2019-05-21T16:21:54.984Z,17.50
2019-05-21T16:24:21.335Z,17.40
2019-05-21T16:26:47.713Z,17.40
2019-05-21T16:29:14.212Z,17.40
2019-05-21T16:31:40.674Z,17.40
2019-05-21T16:34:06.972Z,17.40
2019-05-21T16:36:33.565Z,17.40
2019-05-21T16:39:00.022Z,17.40
2019-05-21T16:41:27.039Z,17.30
2019-05-21T16:43:53.449Z,17.30
2019-05-21T16:46:20.275Z,17.30
2019-05-21T16:48:47.471Z,17.30
2019-05-21T16:51:14.155Z,17.20
2019-05-21T16:53:40.732Z,17.20
2019-05-21T16:56:07.226Z,17.20
2019-05-21T16:58:33.691Z,17.10
2019-05-21T17:01:00.923Z,17.10
2019-05-21T17:03:27.279Z,17.00
2019-05-21T17:05:53.742Z,17.10
2019-05-21T17:08:20.022Z,17.10
2019-05-21T17:10:46.609Z,17.20
2019-05-21T17:13:13.022Z,17.20
2019-05-21T17:15:39.563Z,17.20
2019-05-21T17:18:06.474Z,17.20
2019-05-21T17:20:34.249Z,17.20
2019-05-21T17:23:01.003Z,17.20
2019-05-21T17:25:27.250Z,17.20
2019-05-21T17:27:53.720Z,17.20
2019-05-21T17:30:20.262Z,17.10
2019-05-21T17:32:46.643Z,17.10
2019-05-21T17:35:13.149Z,17.00
2019-05-21T17:37:39.501Z,16.90
2019-05-21T17:40:06.520Z,16.90
2019-05-21T17:42:33.167Z,16.90
2019-05-21T17:44:59.507Z,16.90
2019-05-21T17:47:25.919Z,16.80
2019-05-21T17:49:52.335Z,16.90
2019-05-21T17:52:18.577Z,16.80
2019-05-21T17:54:56.140Z,16.70
2019-05-21T17:57:13.013Z,16.70
2019-05-21T17:59:39.846Z,16.60
2019-05-21T18:02:08.227Z,16.50
2019-05-21T18:04:35.430Z,16.50
2019-05-21T18:07:02.601Z,16.50
2019-05-21T18:09:29.330Z,16.40
2019-05-21T18:11:55.923Z,16.40
2019-05-21T18:14:22.500Z,16.30
2019-05-21T18:16:49.089Z,16.30
2019-05-21T18:19:15.868Z,16.30
2019-05-21T18:21:42.170Z,16.30
2019-05-21T18:24:09.205Z,16.40
2019-05-21T18:26:35.981Z,16.30
2019-05-21T18:29:02.334Z,16.30
2019-05-21T18:31:28.624Z,16.30
2019-05-21T18:33:55.208Z,16.10
2019-05-21T18:36:21.897Z,16.10
2019-05-21T18:38:48.164Z,16.10
2019-05-21T18:41:15.022Z,16.10
2019-05-21T18:43:41.622Z,16.00
2019-05-21T18:46:08.038Z,16.10
2019-05-21T18:48:34.445Z,16.00
2019-05-21T18:51:01.012Z,16.00
2019-05-21T18:53:27.483Z,16.00
2019-05-21T18:55:53.973Z,16.00
2019-05-21T18:58:20.202Z,16.00
2019-05-21T19:00:46.672Z,16.00
2019-05-21T19:03:13.552Z,15.90
2019-05-21T19:05:40.157Z,15.90
2019-05-21T19:08:06.596Z,15.80
2019-05-21T19:10:32.927Z,15.80
2019-05-21T19:13:01.092Z,15.70
2019-05-21T19:15:28.106Z,15.70
2019-05-21T19:17:54.517Z,15.70
2019-05-21T19:20:22.138Z,15.70
2019-05-21T19:22:48.506Z,15.70
2019-05-21T19:25:15.394Z,15.60
2019-05-21T19:27:41.900Z,15.60
2019-05-21T19:30:09.514Z,15.60
2019-05-21T19:32:35.924Z,15.60
2019-05-21T19:35:05.847Z,15.60
2019-05-21T19:37:32.204Z,15.60
2019-05-21T19:39:58.382Z,15.60
2019-05-21T19:42:24.873Z,15.60
2019-05-21T19:44:51.263Z,15.60
2019-05-21T19:47:17.454Z,15.50
2019-05-21T19:49:43.670Z,15.50
2019-05-21T19:52:09.988Z,15.50
2019-05-21T19:54:36.176Z,15.40
2019-05-21T19:57:03.093Z,15.40
2019-05-21T19:59:29.364Z,15.40
2019-05-21T20:01:56.322Z,15.40
2019-05-21T20:04:23.185Z,15.40
2019-05-21T20:06:49.746Z,15.40
2019-05-21T20:09:16.872Z,15.30
2019-05-21T20:11:43.437Z,15.30
2019-05-21T20:14:09.648Z,15.30
2019-05-21T20:16:37.131Z,15.40
2019-05-21T20:19:04.482Z,15.40
2019-05-21T20:21:31.467Z,15.40
2019-05-21T20:23:57.833Z,15.40
2019-05-21T20:26:26.362Z,15.30
2019-05-21T20:28:53.410Z,15.30
2019-05-21T20:31:20.748Z,15.30
2019-05-21T20:33:49.309Z,15.30
2019-05-21T20:36:15.761Z,15.30
2019-05-21T20:38:42.882Z,15.20
2019-05-21T20:41:09.962Z,15.20
2019-05-21T20:43:36.732Z,15.20
2019-05-21T20:46:04.699Z,15.10
2019-05-21T20:48:33.173Z,15.10
2019-05-21T20:50:59.884Z,15.10
2019-05-21T20:53:26.300Z,15.10
2019-05-21T20:55:52.682Z,15.00
2019-05-21T20:58:19.519Z,15.00
2019-05-21T21:00:48.039Z,15.00
2019-05-21T21:03:14.453Z,15.00
2019-05-21T21:05:40.791Z,15.00
2019-05-21T21:08:08.067Z,15.00
2019-05-21T21:10:34.723Z,15.00
2019-05-21T21:13:01.662Z,15.00
2019-05-21T21:15:28.084Z,14.90
2019-05-21T21:17:54.443Z,14.90
2019-05-21T21:20:20.843Z,14.80
2019-05-21T21:22:47.370Z,14.70
2019-05-21T21:25:19.417Z,14.60
2019-05-21T21:27:45.976Z,14.60
2019-05-21T21:30:12.726Z,14.50
2019-05-21T21:32:39.249Z,14.40
2019-05-21T21:35:05.958Z,14.30
2019-05-21T21:37:33.053Z,14.30
2019-05-21T21:39:59.540Z,14.30
2019-05-21T21:42:25.734Z,14.30
2019-05-21T21:44:52.392Z,14.30
2019-05-21T21:47:18.949Z,14.30
2019-05-21T21:49:45.901Z,14.30
2019-05-21T21:52:14.136Z,14.40
2019-05-21T21:54:41.868Z,14.40
2019-05-21T21:57:08.248Z,14.40
2019-05-21T21:59:34.678Z,14.30
2019-05-21T22:02:25.994Z,14.30
2019-05-21T22:04:53.958Z,14.30
2019-05-21T22:07:22.080Z,14.20
2019-05-21T22:09:48.245Z,14.20
2019-05-21T22:12:16.363Z,14.20
2019-05-21T22:14:51.821Z,14.10
2019-05-21T22:17:12.889Z,14.20
2019-05-21T22:19:39.651Z,14.10
2019-05-21T22:22:06.564Z,14.10
2019-05-21T22:24:32.867Z,14.00
2019-05-21T22:26:59.097Z,14.00
2019-05-21T22:29:25.486Z,14.00
2019-05-21T22:31:51.942Z,14.00
2019-05-21T22:34:18.422Z,14.00
2019-05-21T22:36:44.822Z,14.00
2019-05-21T22:39:18.656Z,14.00
2019-05-21T22:41:44.934Z,14.00
2019-05-21T22:44:11.663Z,13.90
2019-05-21T22:46:37.844Z,13.90
2019-05-21T22:49:04.123Z,13.90
2019-05-21T22:51:30.336Z,13.90
2019-05-21T22:53:56.593Z,13.90
2019-05-21T22:56:22.781Z,13.80
2019-05-21T22:58:49.010Z,13.80
2019-05-21T23:01:15.798Z,13.80
2019-05-21T23:03:42.580Z,13.80
2019-05-21T23:06:09.166Z,13.80
2019-05-21T23:08:36.016Z,13.80
2019-05-21T23:11:02.217Z,13.80
2019-05-21T23:13:28.477Z,13.90
2019-05-21T23:15:55.748Z,13.80
2019-05-21T23:18:22.173Z,13.80
2019-05-21T23:20:48.994Z,13.80
2019-05-21T23:23:15.555Z,13.70
2019-05-21T23:25:42.987Z,13.70
2019-05-21T23:28:09.343Z,13.70
2019-05-21T23:30:35.540Z,13.70
2019-05-21T23:33:03.357Z,13.70
2019-05-21T23:35:29.753Z,13.80
2019-05-21T23:37:55.928Z,13.80
2019-05-21T23:40:23.733Z,13.80
2019-05-21T23:42:49.982Z,13.80
2019-05-21T23:45:16.767Z,13.70
2019-05-21T23:47:43.568Z,13.80
2019-05-21T23:50:12.385Z,13.80
2019-05-21T23:52:39.658Z,13.80
2019-05-21T23:55:06.884Z,13.70
2019-05-21T23:57:35.817Z,13.70
